首页
METAR-TAF:

METAR-TAF

机场 :

Pensacola Regional Airport

彭萨科拉, 佛罗里达州, 美国

纬度: 30-28-41N, 经度: 087-11-13W, 海拔: 36米

当前天气观测

该预报发布于18分钟前的14:53 UTC
风速3节,风向多变
温度 30°C
湿度 62%
气压 1017 hPa
能見度: 16.1公里
天空无云

METAR: KPNS 051453Z VRB03KT 10SM CLR 30/22 A3002 RMK AO2 SLP165 T03000222 50009

时间: 10:11 (15:11 UTC)

预报

该预报发布于3小时和40分钟前的11:31 UTC
预报有效从05日的 12点(UTC)到 06日的 12点(UTC)
风速3节,风向
能見度: 10公里
散云层高于3000英尺
从 05日的 1700点(UTC)
风速5节,风向南转南东
能見度: 10公里
散云层高于3000英尺, 积雨云.
多云层高于25000英尺
附近有雷暴
短暂存在
从 05日的 18点(UTC)到 05日的 21点(UTC)
风速15节,风向多变
多云层高于1500英尺, 积雨云.
雷暴, 小雨
从 06日的 0100点(UTC)
风速4节,风向
能見度: 10公里
散云层高于8000英尺
多云层高于25000英尺
从 06日的 0900点(UTC)
风速6节,风向
能見度: 10公里
多云层高于25000英尺

TAF: KPNS 051131Z 0512/0612 36003KT P6SM SCT030 FM051700 15005KT P6SM VCTS SCT030CB BKN250 TEMPO 0518/0521 VRB15KT -TSRA BKN015CB FM060100 17004KT P6SM SCT080 BKN250 FM060900 09006KT P6SM BKN250

超过4000个机场的气象观测和天气预报(METAR&TAF报告)。

可查询的气象台以黄色和红色小点在地图上表示。

将鼠标移到小点上方,可查看气象台名称。

然后点击查看天气观测和预报。

如需切换地图:点击带黑十字的绿色按钮放大地图;点击带横线的绿色按钮缩小地图;或者点击绿色箭头查看邻近地区的地图。


METAR-TAF: